Time;durP1;ratioP1;P1;durP2;ratioP2;P2;SDS_P1;SDS_P2;PMS_P1;PMS_P2;Temp;Humidity;BMP_temperature;BMP_pressure;BME280_temperature;BME280_humidity;BME280_pressure;Samples;Min_cycle;Max_cycle;Signal;HPM_P1;HPM_P2
2023/06/01 00:00:38;;;;;;;;;;;10.80;99.90;;;-148.53;100.00;63986.66;5053508;28;20004;-78
2023/06/01 00:03:04;;;;;;;;;;;10.90;99.90;;;-148.53;100.00;63986.66;5052104;28;19925;-75
2023/06/01 00:05:29;;;;;;;;;;;10.80;99.90;;;-148.53;100.00;63986.66;5053479;28;20269;-77
2023/06/01 00:07:55;;;;;;;;;;;10.80;99.90;;;-148.53;100.00;63986.66;5053546;28;19921;-77
2023/06/01 00:10:21;;;;;;;;;;;10.70;99.90;;;-148.53;100.00;63986.66;5053086;28;20404;-77
2023/06/01 00:12:46;;;;;;;;;;;10.70;99.90;;;-148.53;100.00;63986.66;5087689;28;19967;-76
2023/06/01 00:15:12;;;;;;;;;;;10.70;99.90;;;-148.53;100.00;63986.66;5059176;28;19917;-78
2023/06/01 00:17:38;;;;;;;;;;;10.70;99.90;;;-148.53;100.00;63986.66;5063506;28;19928;-77
2023/06/01 00:20:08;;;;;;;;;;;10.60;99.90;;;-148.53;100.00;63986.66;5053641;28;19982;-77
2023/06/01 00:22:38;;;;;;;;;;;10.50;99.90;;;-148.53;100.00;63986.66;5061904;28;20383;-75
2023/06/01 00:25:07;;;;;;;;;;;10.40;99.90;;;-148.53;100.00;63986.66;5085046;28;19916;-76
2023/06/01 00:27:34;;;;;;;;;;;10.40;99.90;;;-148.53;100.00;63986.66;5059844;28;19920;-77
2023/06/01 00:30:00;;;;;;;;;;;10.40;99.90;;;-148.53;100.00;63986.66;5069232;28;19916;-76
2023/06/01 00:32:25;;;;;;;;;;;10.40;99.90;;;-148.53;100.00;63986.66;5063236;28;19927;-78
2023/06/01 00:34:52;;;;;;;;;;;10.50;99.90;;;-148.53;100.00;63986.66;5055017;28;19916;-76
2023/06/01 00:37:18;;;;;;;;;;;10.50;99.90;;;-148.53;100.00;63986.66;5063392;28;19916;-76
2023/06/01 00:39:43;;;;;;;;;;;10.50;99.90;;;-148.53;100.00;63986.66;5051394;28;20373;-77
2023/06/01 00:42:09;;;;;;;;;;;10.50;99.90;;;-148.53;100.00;63986.66;5052504;28;20388;-76
2023/06/01 00:44:35;;;;;;;;;;;10.50;99.90;;;-148.53;100.00;63986.66;5057378;28;20322;-76
2023/06/01 00:47:01;;;;;;;;;;;10.60;99.90;;;-148.53;100.00;63986.66;5089555;28;20240;-76
2023/06/01 00:49:26;;;;;;;;;;;10.60;99.90;;;-148.53;100.00;63986.66;5065806;28;20272;-76
2023/06/01 00:51:53;;;;;;;;;;;10.60;99.90;;;-148.53;100.00;63986.66;5056979;28;20284;-77
2023/06/01 00:54:19;;;;;;;;;;;10.60;99.90;;;-148.53;100.00;63986.66;5051453;28;20340;-76
2023/06/01 00:56:46;;;;;;;;;;;10.70;99.90;;;-148.53;100.00;63986.66;5051363;28;19916;-77
2023/06/01 00:59:12;;;;;;;;;;;10.70;99.90;;;-148.53;100.00;63986.66;5054451;28;19950;-76
2023/06/01 01:01:37;;;;;;;;;;;10.70;99.90;;;-148.53;100.00;63986.66;5086441;28;19923;-76
2023/06/01 01:04:04;;;;;;;;;;;10.70;99.90;;;-148.53;100.00;63986.66;5058891;28;19916;-76
2023/06/01 01:06:57;;;;;;;;;;;10.70;99.90;;;-148.53;100.00;63986.66;5062666;28;20086;-76
2023/06/01 01:09:42;;;;;;;;;;;10.70;99.90;;;-148.53;100.00;63986.66;5052162;28;19924;-76
2023/06/01 01:12:26;;;;;;;;;;;10.70;99.90;;;-148.53;100.00;63986.66;5084872;28;19927;-77
2023/06/01 01:15:11;;;;;;;;;;;10.70;99.90;;;-148.53;100.00;63986.66;5060065;28;19916;-76
2023/06/01 01:17:42;;;;;;;;;;;10.70;99.90;;;-148.53;100.00;63986.66;5053967;28;20544;-76
2023/06/01 01:20:15;;;;;;;;;;;10.80;99.90;;;-148.53;100.00;63986.66;5089262;28;20394;-77
2023/06/01 01:23:02;;;;;;;;;;;10.80;99.90;;;-148.53;100.00;63986.66;5041597;28;19980;-75
2023/06/01 01:25:45;;;;;;;;;;;10.80;99.90;;;-148.53;100.00;63986.66;5054508;28;20283;-77
2023/06/01 01:28:48;;;;;;;;;;;10.80;99.90;;;-148.53;100.00;63986.66;5055931;28;19971;-77
2023/06/01 01:31:18;;;;;;;;;;;10.80;99.90;;;-148.53;100.00;63986.66;5052335;28;20395;-77
2023/06/01 01:33:46;;;;;;;;;;;10.70;99.90;;;-148.53;100.00;63986.66;5051547;28;19916;-77
2023/06/01 01:36:12;;;;;;;;;;;10.60;99.90;;;-148.53;100.00;63986.66;5057829;28;20012;-76
2023/06/01 01:38:38;;;;;;;;;;;10.50;99.90;;;-148.53;100.00;63986.66;5051761;28;19960;-77
2023/06/01 01:41:04;;;;;;;;;;;10.50;99.90;;;-148.53;100.00;63986.66;5054745;28;19924;-76
2023/06/01 01:43:31;;;;;;;;;;;10.50;99.90;;;-148.53;100.00;63986.66;5054342;28;19920;-76
2023/06/01 01:46:07;;;;;;;;;;;10.50;99.90;;;-148.53;100.00;63986.66;5055356;28;19962;-76
2023/06/01 01:48:39;;;;;;;;;;;10.50;99.90;;;-148.53;100.00;63986.66;5051885;28;19921;-76
2023/06/01 01:51:13;;;;;;;;;;;10.60;99.90;;;-148.53;100.00;63986.66;5050553;28;20391;-77
2023/06/01 01:53:41;;;;;;;;;;;10.60;99.90;;;-148.53;100.00;63986.66;5050487;28;20069;-76
2023/06/01 01:56:07;;;;;;;;;;;10.60;99.90;;;-148.53;100.00;63986.66;5051781;28;20296;-76
2023/06/01 01:58:33;;;;;;;;;;;10.60;99.90;;;-148.53;100.00;63986.66;5059903;28;19966;-75
2023/06/01 02:00:59;;;;;;;;;;;10.60;99.90;;;-148.53;100.00;63986.66;5064068;28;20099;-76
2023/06/01 02:03:25;;;;;;;;;;;10.60;99.90;;;-148.53;100.00;63986.66;5068605;28;20003;-76
2023/06/01 02:05:51;;;;;;;;;;;10.60;99.90;;;-148.53;100.00;63986.66;5060143;28;19923;-75
2023/06/01 02:08:17;;;;;;;;;;;10.60;99.90;;;-148.53;100.00;63986.66;5057512;28;19952;-76
2023/06/01 02:10:43;;;;;;;;;;;10.60;99.90;;;-148.53;100.00;63986.66;5056214;28;19916;-76
2023/06/01 02:13:09;;;;;;;;;;;10.50;99.90;;;-148.53;100.00;63986.66;5059962;28;19917;-75
2023/06/01 02:15:35;;;;;;;;;;;10.50;99.90;;;-148.53;100.00;63986.66;5050424;28;20328;-76
2023/06/01 02:18:02;;;;;;;;;;;10.50;99.90;;;-148.53;100.00;63986.66;5055359;28;20051;-77
2023/06/01 02:20:27;;;;;;;;;;;10.50;99.90;;;-148.53;100.00;63986.66;5050767;28;19916;-75
2023/06/01 02:22:53;;;;;;;;;;;10.40;99.90;;;-148.53;100.00;63986.66;5057682;28;19916;-77
2023/06/01 02:25:19;;;;;;;;;;;10.40;99.90;;;-148.53;100.00;63986.66;5056232;28;19970;-77
2023/06/01 02:27:45;;;;;;;;;;;10.40;99.90;;;-148.53;100.00;63986.66;5057885;28;20388;-76
2023/06/01 02:30:11;;;;;;;;;;;10.50;99.90;;;-148.53;100.00;63986.66;5051985;28;19952;-76
2023/06/01 02:32:37;;;;;;;;;;;10.50;99.90;;;-148.53;100.00;63986.66;5051501;28;19916;-76
2023/06/01 02:35:06;;;;;;;;;;;10.60;99.90;;;-148.53;100.00;63986.66;5057738;28;19939;-75
2023/06/01 02:37:31;;;;;;;;;;;10.60;99.90;;;-148.53;100.00;63986.66;5053607;28;19916;-76
2023/06/01 02:39:57;;;;;;;;;;;10.40;99.90;;;-148.53;100.00;63986.66;5054128;28;19969;-76
2023/06/01 02:42:23;;;;;;;;;;;10.40;99.90;;;-148.53;100.00;63986.66;5065146;28;19959;-77
2023/06/01 02:44:48;;;;;;;;;;;10.40;99.90;;;-148.53;100.00;63986.66;5049895;28;20261;-76
2023/06/01 02:47:14;;;;;;;;;;;10.50;99.90;;;-148.53;100.00;63986.66;5049861;28;20022;-76
2023/06/01 02:49:40;;;;;;;;;;;10.50;99.90;;;-148.53;100.00;63986.66;5051023;28;19917;-75
2023/06/01 02:52:06;;;;;;;;;;;10.50;99.90;;;-148.53;100.00;63986.66;5051323;28;19927;-77
2023/06/01 02:54:31;;;;;;;;;;;10.50;99.90;;;-148.53;100.00;63986.66;5060467;28;19931;-74
2023/06/01 02:57:02;;;;;;;;;;;10.50;99.90;;;-148.53;100.00;63986.66;5061828;28;19916;-76
2023/06/01 02:59:44;;;;;;;;;;;10.40;99.90;;;-148.53;100.00;63986.66;5053741;28;19923;-76
2023/06/01 03:02:10;;;;;;;;;;;10.40;99.90;;;-148.53;100.00;63986.66;5053445;28;19920;-76
2023/06/01 03:04:36;;;;;;;;;;;10.40;99.90;;;-148.53;100.00;63986.66;5056989;28;20013;-78
2023/06/01 03:07:02;;;;;;;;;;;10.40;99.90;;;-148.53;100.00;63986.66;5059585;28;19917;-77
2023/06/01 03:09:49;;;;;;;;;;;10.50;99.90;;;-148.53;100.00;63986.66;5060361;28;19916;-76
2023/06/01 03:12:17;;;;;;;;;;;10.50;99.90;;;-148.53;100.00;63986.66;5060821;28;19955;-77
2023/06/01 03:14:43;;;;;;;;;;;10.50;99.90;;;-148.53;100.00;63986.66;5058732;28;20261;-77
2023/06/01 03:17:09;;;;;;;;;;;10.50;99.90;;;-148.53;100.00;63986.66;5059633;28;19924;-77
2023/06/01 03:19:35;;;;;;;;;;;10.50;99.90;;;-148.53;100.00;63986.66;5059503;28;19974;-77
2023/06/01 03:22:07;;;;;;;;;;;10.50;99.90;;;-148.53;100.00;63986.66;5086652;28;20012;-76
2023/06/01 03:24:34;;;;;;;;;;;10.60;99.90;;;-148.53;100.00;63986.66;5062315;28;20434;-76
2023/06/01 03:27:04;;;;;;;;;;;10.70;99.90;;;-148.53;100.00;63986.66;5069247;28;19916;-76
2023/06/01 03:29:33;;;;;;;;;;;10.60;99.90;;;-148.53;100.00;63986.66;5073103;28;19917;-74
2023/06/01 03:31:59;;;;;;;;;;;10.60;99.90;;;-148.53;100.00;63986.66;5053924;28;19962;-74
2023/06/01 03:34:27;;;;;;;;;;;10.60;99.90;;;-148.53;100.00;63986.66;5055637;28;19916;-75
2023/06/01 03:36:53;;;;;;;;;;;10.60;99.90;;;-148.53;100.00;63986.66;5056328;28;19920;-74
2023/06/01 03:39:19;;;;;;;;;;;10.60;99.90;;;-148.53;100.00;63986.66;5057116;28;19920;-76
2023/06/01 03:41:45;;;;;;;;;;;10.60;99.90;;;-148.53;100.00;63986.66;5052722;28;19923;-76
2023/06/01 03:44:11;;;;;;;;;;;10.60;99.90;;;-148.53;100.00;63986.66;5052923;28;19921;-75
2023/06/01 03:46:39;;;;;;;;;;;10.60;99.90;;;-148.53;100.00;63986.66;5053900;28;19970;-75
2023/06/01 03:49:05;;;;;;;;;;;10.60;99.90;;;-148.53;100.00;63986.66;5052458;28;19960;-75
2023/06/01 03:51:31;;;;;;;;;;;10.60;99.90;;;-148.53;100.00;63986.66;5057597;28;20027;-75
2023/06/01 03:53:58;;;;;;;;;;;10.60;99.90;;;-148.53;100.00;63986.66;5066983;28;19923;-75
2023/06/01 03:56:23;;;;;;;;;;;10.50;99.90;;;-148.53;100.00;63986.66;5055425;28;20004;-75
2023/06/01 03:58:52;;;;;;;;;;;10.50;99.90;;;-148.53;100.00;63986.66;5054720;28;19916;-77
2023/06/01 04:01:19;;;;;;;;;;;10.50;99.90;;;-148.53;100.00;63986.66;5057863;28;20315;-77
2023/06/01 04:03:48;;;;;;;;;;;10.60;99.90;;;-148.53;100.00;63986.66;5033745;28;19916;-77
2023/06/01 04:06:17;;;;;;;;;;;10.50;99.90;;;-148.53;100.00;63986.66;5034517;28;19965;-77
2023/06/01 04:08:55;;;;;;;;;;;10.60;99.90;;;-148.53;100.00;63986.66;5060212;28;19985;-77
2023/06/01 04:11:22;;;;;;;;;;;10.60;99.90;;;-148.53;100.00;63986.66;5061137;28;19963;-77
2023/06/01 04:13:48;;;;;;;;;;;10.60;99.90;;;-148.53;100.00;63986.66;5090853;28;19921;-78
2023/06/01 04:16:15;;;;;;;;;;;10.60;99.90;;;-148.53;100.00;63986.66;5057361;28;19924;-78
2023/06/01 04:18:41;;;;;;;;;;;10.50;99.90;;;-148.53;100.00;63986.66;5065537;28;19956;-77
2023/06/01 04:21:12;;;;;;;;;;;10.50;99.90;;;-148.53;100.00;63986.66;5052694;28;19924;-77
2023/06/01 04:23:38;;;;;;;;;;;10.50;99.90;;;-148.53;100.00;63986.66;5057032;28;19917;-76
2023/06/01 04:26:04;;;;;;;;;;;10.60;99.90;;;-148.53;100.00;63986.66;5052767;28;20288;-75
2023/06/01 04:28:32;;;;;;;;;;;10.60;99.90;;;-148.53;100.00;63986.66;5094501;28;19942;-75
2023/06/01 04:30:58;;;;;;;;;;;10.70;99.90;;;-148.53;100.00;63986.66;5056114;28;20011;-76
2023/06/01 04:33:24;;;;;;;;;;;10.70;99.90;;;-148.53;100.00;63986.66;5091648;28;19920;-76
2023/06/01 04:35:54;;;;;;;;;;;10.70;99.90;;;-148.53;100.00;63986.66;5051522;28;19912;-74
2023/06/01 04:38:24;;;;;;;;;;;10.70;99.90;;;-148.53;100.00;63986.66;5052242;28;19917;-76
2023/06/01 04:40:53;;;;;;;;;;;10.70;99.90;;;-148.53;100.00;63986.66;5051611;28;19920;-76
2023/06/01 04:43:19;;;;;;;;;;;10.70;99.90;;;-148.53;100.00;63986.66;5052630;28;20242;-75
2023/06/01 04:45:45;;;;;;;;;;;10.70;99.90;;;-148.53;100.00;63986.66;5060789;28;19916;-74
2023/06/01 04:48:12;;;;;;;;;;;10.60;99.90;;;-148.53;100.00;63986.66;5054417;28;20403;-74
2023/06/01 04:50:58;;;;;;;;;;;10.70;99.90;;;-148.53;100.00;63986.66;5051002;28;20380;-77
2023/06/01 04:53:26;;;;;;;;;;;10.70;99.90;;;-148.53;100.00;63986.66;5090611;28;19959;-74
2023/06/01 04:55:53;;;;;;;;;;;10.70;99.90;;;-148.53;100.00;63986.66;5052405;28;20099;-74
2023/06/01 04:58:19;;;;;;;;;;;10.80;99.90;;;-148.53;100.00;63986.66;5053364;28;20252;-76
2023/06/01 05:00:45;;;;;;;;;;;10.80;99.90;;;-148.53;100.00;63986.66;5060719;28;19924;-75
2023/06/01 05:03:12;;;;;;;;;;;10.90;99.90;;;-148.53;100.00;63986.66;5068030;28;19931;-75
2023/06/01 05:05:37;;;;;;;;;;;11.10;99.90;;;-148.53;100.00;63986.66;5060000;28;19944;-78
2023/06/01 05:08:03;;;;;;;;;;;11.10;99.90;;;-148.53;100.00;63986.66;5051206;28;20279;-76
2023/06/01 05:10:29;;;;;;;;;;;11.00;99.90;;;-148.53;100.00;63986.66;5070140;28;20343;-76
2023/06/01 05:12:55;;;;;;;;;;;11.00;99.90;;;-148.53;100.00;63986.66;5051123;28;20375;-75
2023/06/01 05:15:21;;;;;;;;;;;10.90;99.90;;;-148.53;100.00;63986.66;5056851;28;19943;-76
2023/06/01 05:17:47;;;;;;;;;;;11.00;99.90;;;-148.53;100.00;63986.66;5054410;28;19964;-77
2023/06/01 05:20:15;;;;;;;;;;;11.00;99.90;;;-148.53;100.00;63986.66;5051628;28;19921;-78
2023/06/01 05:22:45;;;;;;;;;;;11.00;99.90;;;-148.53;100.00;63986.66;5057518;28;20253;-77
2023/06/01 05:25:11;;;;;;;;;;;11.00;99.90;;;-148.53;100.00;63986.66;5055220;28;19970;-76
2023/06/01 05:27:37;;;;;;;;;;;11.20;99.90;;;-148.53;100.00;63986.66;5062275;28;19920;-76
2023/06/01 05:30:05;;;;;;;;;;;11.10;99.90;;;-148.53;100.00;63986.66;5051238;28;19920;-75
2023/06/01 05:32:30;;;;;;;;;;;11.20;99.90;;;-148.53;100.00;63986.66;5052307;28;19928;-77
2023/06/01 05:35:04;;;;;;;;;;;11.20;99.90;;;-148.53;100.00;63986.66;5052128;28;20280;-76
2023/06/01 05:37:30;;;;;;;;;;;11.20;99.90;;;-148.53;100.00;63986.66;5050977;28;19975;-76
2023/06/01 05:39:56;;;;;;;;;;;11.30;99.90;;;-148.53;100.00;63986.66;5052446;28;19956;-76
2023/06/01 05:42:22;;;;;;;;;;;11.40;99.90;;;-148.53;100.00;63986.66;5051746;28;20023;-77
2023/06/01 05:44:47;;;;;;;;;;;11.40;99.90;;;-148.53;100.00;63986.66;5065322;28;19987;-76
2023/06/01 05:47:15;;;;;;;;;;;11.40;99.90;;;-148.53;100.00;63986.66;5065945;28;19917;-77
2023/06/01 05:49:41;;;;;;;;;;;11.60;99.90;;;-148.53;100.00;63986.66;5059892;28;19920;-77
2023/06/01 05:52:09;;;;;;;;;;;11.60;99.90;;;-148.53;100.00;63986.66;5062344;28;19920;-76
2023/06/01 05:54:35;;;;;;;;;;;11.40;99.90;;;-148.53;100.00;63986.66;5058239;28;19975;-78
2023/06/01 05:57:01;;;;;;;;;;;11.50;99.90;;;-148.53;100.00;63986.66;5052762;28;19960;-77
2023/06/01 05:59:26;;;;;;;;;;;11.60;99.90;;;-148.53;100.00;63986.66;5060247;28;20371;-76
2023/06/01 06:01:52;;;;;;;;;;;11.70;99.90;;;-148.53;100.00;63986.66;5057765;28;20233;-77
2023/06/01 06:04:17;;;;;;;;;;;11.80;99.90;;;-148.53;100.00;63986.66;5054985;28;19924;-77
2023/06/01 06:06:43;;;;;;;;;;;11.80;99.90;;;-148.53;100.00;63986.66;5052896;28;19917;-77
2023/06/01 06:09:10;;;;;;;;;;;12.00;99.90;;;-148.53;100.00;63986.66;5068317;28;19917;-77
2023/06/01 06:11:35;;;;;;;;;;;12.10;99.90;;;-148.53;100.00;63986.66;5096918;27;19916;-77
2023/06/01 06:14:01;;;;;;;;;;;12.10;99.90;;;-148.53;100.00;63986.66;5070798;28;21568;-76
2023/06/01 06:16:27;;;;;;;;;;;12.10;99.90;;;-148.53;100.00;63986.66;5066803;28;19947;-77
2023/06/01 06:18:52;;;;;;;;;;;12.10;99.90;;;-148.53;100.00;63986.66;5059741;28;20417;-76
2023/06/01 06:21:18;;;;;;;;;;;12.00;99.90;;;-148.53;100.00;63986.66;5068347;28;19967;-77
2023/06/01 06:23:44;;;;;;;;;;;12.10;99.90;;;-148.53;100.00;63986.66;5065039;28;20395;-77
2023/06/01 06:26:10;;;;;;;;;;;12.10;99.90;;;-148.53;100.00;63986.66;5059775;28;19923;-77
2023/06/01 06:28:36;;;;;;;;;;;12.10;99.90;;;-148.53;100.00;63986.66;5051180;28;19952;-76
2023/06/01 06:31:01;;;;;;;;;;;12.00;99.90;;;-148.53;100.00;63986.66;5056349;28;19916;-77
2023/06/01 06:33:27;;;;;;;;;;;12.10;99.90;;;-148.53;100.00;63986.66;5102633;27;19920;-77
2023/06/01 06:35:54;;;;;;;;;;;12.10;99.90;;;-148.53;100.00;63986.66;5064842;28;19917;-78
2023/06/01 06:38:19;;;;;;;;;;;12.20;99.90;;;-148.53;100.00;63986.66;5069104;28;20010;-77
2023/06/01 06:40:45;;;;;;;;;;;12.20;99.90;;;-148.53;100.00;63986.66;5062963;28;20011;-78
2023/06/01 06:43:13;;;;;;;;;;;12.30;99.90;;;-148.53;100.00;63986.66;5062947;28;19924;-77
2023/06/01 06:45:39;;;;;;;;;;;12.50;99.90;;;-148.53;100.00;63986.66;5067899;28;19928;-77
2023/06/01 06:48:05;;;;;;;;;;;12.60;99.90;;;-148.53;100.00;63986.66;5072201;28;19927;-78
2023/06/01 06:50:31;;;;;;;;;;;12.60;99.90;;;-148.53;100.00;63986.66;5071298;28;19920;-77
2023/06/01 06:52:59;;;;;;;;;;;12.60;99.90;;;-148.53;100.00;63986.66;5071722;28;20383;-77
2023/06/01 06:55:24;;;;;;;;;;;12.40;99.90;;;-148.53;100.00;63986.66;5069672;28;19925;-78
2023/06/01 06:57:50;;;;;;;;;;;12.40;99.90;;;-148.53;100.00;63986.66;5073104;28;19923;-76
2023/06/01 07:00:16;;;;;;;;;;;12.20;99.90;;;-148.53;100.00;63986.66;5070189;28;20172;-77
2023/06/01 07:02:45;;;;;;;;;;;12.20;99.90;;;-148.53;100.00;63986.66;5070195;28;19916;-77
2023/06/01 07:05:11;;;;;;;;;;;12.30;99.90;;;-148.53;100.00;63986.66;5083913;28;19966;-77
2023/06/01 07:07:37;;;;;;;;;;;12.40;99.90;;;-148.53;100.00;63986.66;5068152;28;19916;-76
2023/06/01 07:10:04;;;;;;;;;;;12.40;99.90;;;-148.53;100.00;63986.66;5068255;28;19916;-75
2023/06/01 07:12:30;;;;;;;;;;;12.30;99.90;;;-148.53;100.00;63986.66;5067464;28;19967;-76
2023/06/01 07:14:55;;;;;;;;;;;12.40;99.90;;;-148.53;100.00;63986.66;5070424;28;20478;-78
2023/06/01 07:17:21;;;;;;;;;;;12.50;99.90;;;-148.53;100.00;63986.66;5067962;28;19917;-77
2023/06/01 07:19:46;;;;;;;;;;;12.50;99.90;;;-148.53;100.00;63986.66;5071119;28;19959;-75
2023/06/01 07:22:13;;;;;;;;;;;12.80;99.90;;;-148.53;100.00;63986.66;5059690;28;19956;-76
2023/06/01 07:24:39;;;;;;;;;;;12.80;99.90;;;-148.53;100.00;63986.66;5061486;28;19928;-77
2023/06/01 07:27:05;;;;;;;;;;;12.80;99.90;;;-148.53;100.00;63986.66;5060306;28;19916;-77
2023/06/01 07:29:32;;;;;;;;;;;12.90;99.90;;;-148.53;100.00;63986.66;5061497;28;20397;-76
2023/06/01 07:31:57;;;;;;;;;;;12.90;99.90;;;-148.53;100.00;63986.66;5053929;28;19921;-77
2023/06/01 07:34:24;;;;;;;;;;;13.10;99.90;;;-148.53;100.00;63986.66;5054557;28;19963;-77
2023/06/01 07:36:50;;;;;;;;;;;13.00;99.90;;;-148.53;100.00;63986.66;5056049;28;19917;-78
2023/06/01 07:39:16;;;;;;;;;;;12.90;99.90;;;-148.53;100.00;63986.66;5063548;28;19927;-77
2023/06/01 07:41:44;;;;;;;;;;;12.90;99.90;;;-148.53;100.00;63986.66;5059100;28;19970;-77
2023/06/01 07:44:12;;;;;;;;;;;12.70;99.90;;;-148.53;100.00;63986.66;5060999;28;19970;-77
2023/06/01 07:46:38;;;;;;;;;;;12.80;99.90;;;-148.53;100.00;63986.66;5053199;28;19928;-75
2023/06/01 07:49:03;;;;;;;;;;;13.00;99.90;;;-148.53;100.00;63986.66;5055118;28;19916;-75
2023/06/01 07:51:31;;;;;;;;;;;13.20;99.90;;;-148.53;100.00;63986.66;5057475;28;19927;-76
2023/06/01 07:53:59;;;;;;;;;;;13.20;99.90;;;-148.53;100.00;63986.66;5057042;28;20420;-75
2023/06/01 07:56:26;;;;;;;;;;;13.10;99.90;;;-148.53;100.00;63986.66;5063837;28;19917;-75
2023/06/01 07:58:55;;;;;;;;;;;13.10;99.90;;;-148.53;100.00;63986.66;5053259;28;19951;-76
2023/06/01 08:01:20;;;;;;;;;;;13.10;99.90;;;-148.53;100.00;63986.66;5054820;28;19917;-76
2023/06/01 08:03:46;;;;;;;;;;;13.30;99.90;;;-148.53;100.00;63986.66;5059731;28;19928;-75
2023/06/01 08:06:14;;;;;;;;;;;13.60;99.90;;;-148.53;100.00;63986.66;5057695;28;19916;-75
2023/06/01 08:08:43;;;;;;;;;;;13.40;99.90;;;-148.53;100.00;63986.66;5056681;28;20329;-76
2023/06/01 08:11:09;;;;;;;;;;;13.30;99.90;;;-148.53;100.00;63986.66;5060146;28;19930;-75
2023/06/01 08:13:36;;;;;;;;;;;13.40;99.90;;;-148.53;100.00;63986.66;5060622;28;20319;-76
2023/06/01 08:16:03;;;;;;;;;;;13.10;99.90;;;-148.53;100.00;63986.66;5054358;28;20016;-76
2023/06/01 08:18:30;;;;;;;;;;;13.40;99.90;;;-148.53;100.00;63986.66;5060902;28;19922;-76
2023/06/01 08:20:56;;;;;;;;;;;13.80;99.90;;;-148.53;100.00;63986.66;5054534;28;19934;-75
2023/06/01 08:23:24;;;;;;;;;;;13.90;99.90;;;-148.53;100.00;63986.66;5058252;28;19962;-76
2023/06/01 08:25:50;;;;;;;;;;;14.00;99.90;;;-148.53;100.00;63986.66;5054283;28;19990;-75
2023/06/01 08:28:16;;;;;;;;;;;13.70;99.90;;;-148.53;100.00;63986.66;5060508;28;19924;-75
2023/06/01 08:30:41;;;;;;;;;;;13.60;99.90;;;-148.53;100.00;63986.66;5053252;28;19923;-75
2023/06/01 08:33:07;;;;;;;;;;;13.30;99.90;;;-148.53;100.00;63986.66;5053527;28;19987;-74
2023/06/01 08:35:34;;;;;;;;;;;13.30;99.90;;;-148.53;100.00;63986.66;5055998;28;19990;-75
2023/06/01 08:38:03;;;;;;;;;;;13.30;99.90;;;-148.53;100.00;63986.66;5055876;28;19920;-77
2023/06/01 08:40:31;;;;;;;;;;;13.50;99.90;;;-148.53;100.00;63986.66;5053752;28;19927;-79
2023/06/01 08:43:12;;;;;;;;;;;13.50;99.90;;;-148.53;100.00;63986.66;5058445;28;19924;-78
2023/06/01 08:45:38;;;;;;;;;;;13.40;99.90;;;-148.53;100.00;63986.66;5051371;28;19971;-76
2023/06/01 08:48:08;;;;;;;;;;;13.50;99.90;;;-148.53;100.00;63986.66;5053666;28;19921;-76
2023/06/01 08:50:39;;;;;;;;;;;13.50;99.90;;;-148.53;100.00;63986.66;5064018;28;19916;-77
2023/06/01 08:53:05;;;;;;;;;;;13.40;99.90;;;-148.53;100.00;63986.66;5063351;28;19916;-77
2023/06/01 08:55:34;;;;;;;;;;;13.60;99.90;;;-148.53;100.00;63986.66;5061731;28;19920;-78
2023/06/01 08:58:06;;;;;;;;;;;13.60;99.90;;;-148.53;100.00;63986.66;5057884;28;19916;-78
2023/06/01 09:00:44;;;;;;;;;;;13.80;99.90;;;-148.53;100.00;63986.66;5054669;28;19925;-76
2023/06/01 09:03:13;;;;;;;;;;;14.00;99.90;;;-148.53;100.00;63986.66;5051818;28;19917;-77
2023/06/01 09:05:39;;;;;;;;;;;14.00;99.90;;;-148.53;100.00;63986.66;5056622;28;19956;-77
2023/06/01 09:08:05;;;;;;;;;;;13.90;99.90;;;-148.53;100.00;63986.66;5061955;28;19970;-79
2023/06/01 09:10:30;;;;;;;;;;;14.20;99.90;;;-148.53;100.00;63986.66;5061534;28;19921;-76
2023/06/01 09:12:56;;;;;;;;;;;14.20;99.90;;;-148.53;100.00;63986.66;5067507;28;19920;-76
2023/06/01 09:15:22;;;;;;;;;;;14.20;99.90;;;-148.53;100.00;63986.66;5065944;28;19917;-76
2023/06/01 09:17:51;;;;;;;;;;;14.10;99.90;;;-148.53;100.00;63986.66;5073429;28;19924;-78
2023/06/01 09:20:27;;;;;;;;;;;13.90;99.90;;;-148.53;100.00;63986.66;5060403;28;19920;-77
2023/06/01 09:22:53;;;;;;;;;;;14.10;99.90;;;-148.53;100.00;63986.66;5060258;28;19917;-77
2023/06/01 09:25:26;;;;;;;;;;;14.10;99.90;;;-148.53;100.00;63986.66;5060485;28;19917;-76
2023/06/01 09:27:54;;;;;;;;;;;14.00;99.90;;;-148.53;100.00;63986.66;5051414;28;19916;-77
2023/06/01 09:30:23;;;;;;;;;;;13.80;99.90;;;-148.53;100.00;63986.66;5059848;28;19920;-79
2023/06/01 09:32:53;;;;;;;;;;;13.50;99.90;;;-148.53;100.00;63986.66;5056753;28;19917;-79
2023/06/01 09:35:47;;;;;;;;;;;13.40;99.90;;;-148.53;100.00;63986.66;5069138;28;19927;-77
2023/06/01 09:38:26;;;;;;;;;;;13.40;99.90;;;-148.53;100.00;63986.66;5066036;28;20269;-79
2023/06/01 09:41:04;;;;;;;;;;;13.70;99.90;;;-148.53;100.00;63986.66;5071633;28;20007;-77
2023/06/01 09:43:36;;;;;;;;;;;13.70;99.90;;;-148.53;100.00;63986.66;5062537;28;19927;-77
2023/06/01 09:46:09;;;;;;;;;;;13.70;99.90;;;-148.53;100.00;63986.66;5062088;28;19956;-78
2023/06/01 09:48:36;;;;;;;;;;;14.00;99.90;;;-148.53;100.00;63986.66;5064201;28;19917;-75
2023/06/01 09:51:02;;;;;;;;;;;14.40;99.90;;;-148.53;100.00;63986.66;5059923;28;20299;-77
2023/06/01 09:53:39;;;;;;;;;;;14.10;99.90;;;-148.53;100.00;63986.66;5057895;28;19930;-79
2023/06/01 09:56:05;;;;;;;;;;;14.40;99.90;;;-148.53;100.00;63986.66;5058220;28;19916;-76
2023/06/01 09:58:39;;;;;;;;;;;14.40;99.90;;;-148.53;100.00;63986.66;5063475;28;19942;-78
2023/06/01 10:01:29;;;;;;;;;;;14.50;99.90;;;-148.53;100.00;63986.66;5063090;28;19921;-79
2023/06/01 10:03:58;;;;;;;;;;;14.60;99.90;;;-148.53;100.00;63986.66;5065218;28;19974;-77
2023/06/01 10:06:24;;;;;;;;;;;14.60;99.90;;;-148.53;100.00;63986.66;5064792;28;20265;-77
2023/06/01 10:08:52;;;;;;;;;;;14.90;99.90;;;-148.53;100.00;63986.66;5066865;28;20003;-79
2023/06/01 10:11:21;;;;;;;;;;;14.50;99.90;;;-148.53;100.00;63986.66;5077939;28;19928;-80
2023/06/01 10:13:48;;;;;;;;;;;14.70;99.90;;;-148.53;100.00;63986.66;5065357;28;19921;-77
2023/06/01 10:16:17;;;;;;;;;;;14.40;99.90;;;-148.53;100.00;63986.66;5036838;28;19925;-78
2023/06/01 10:18:45;;;;;;;;;;;14.50;99.90;;;-148.53;100.00;63986.66;5059542;28;19920;-77
2023/06/01 10:21:11;;;;;;;;;;;14.90;99.90;;;-148.53;100.00;63986.66;5054192;28;20376;-76
2023/06/01 10:23:37;;;;;;;;;;;14.70;99.90;;;-148.53;100.00;63986.66;5053304;28;19982;-76
2023/06/01 10:26:14;;;;;;;;;;;14.90;99.90;;;-148.53;100.00;63986.66;5060258;28;19920;-78
2023/06/01 10:28:40;;;;;;;;;;;14.90;99.90;;;-148.53;100.00;63986.66;5064224;28;19916;-77
2023/06/01 10:31:41;;;;;;;;;;;14.90;99.90;;;-148.53;100.00;63986.66;5053318;28;19928;-77
2023/06/01 10:34:09;;;;;;;;;;;14.90;99.90;;;-148.53;100.00;63986.66;5046032;28;19920;-77
2023/06/01 10:36:53;;;;;;;;;;;15.20;99.90;;;-148.53;100.00;63986.66;5051232;28;20030;-77
2023/06/01 10:39:32;;;;;;;;;;;15.30;99.90;;;-148.53;100.00;63986.66;5053279;28;20333;-75
2023/06/01 10:42:19;;;;;;;;;;;14.90;99.90;;;-148.53;100.00;63986.66;5049125;28;19921;-76
2023/06/01 10:44:45;;;;;;;;;;;14.90;99.90;;;-148.53;100.00;63986.66;5060379;28;19916;-77
2023/06/01 10:47:14;;;;;;;;;;;14.60;99.90;;;-148.53;100.00;63986.66;5059561;28;20284;-78
2023/06/01 10:49:52;;;;;;;;;;;14.50;99.90;;;-148.53;100.00;63986.66;5054049;28;19921;-76
2023/06/01 10:52:35;;;;;;;;;;;14.70;99.90;;;-148.53;100.00;63986.66;5065323;28;19921;-76
2023/06/01 10:55:10;;;;;;;;;;;15.00;99.90;;;-148.53;100.00;63986.66;5062553;28;19920;-77
2023/06/01 10:57:46;;;;;;;;;;;15.00;99.90;;;-148.53;100.00;63986.66;5050834;28;19924;-77
2023/06/01 11:00:19;;;;;;;;;;;15.20;99.90;;;-148.53;100.00;63986.66;5067251;28;20376;-77